Fair Seas — V7PD2 — position and weather

sailwx.info

Track history (hours):
 
Tides and Currents Weather Stations Pressure Air Temp Water Temp Dewpoint Dewpoint Depression Visibility Wind Speed Wind Dir Waves Ship Positions

Fair Seas

Last reported at 2016-Jun-25 06:33 UTC. Time now 2016-Jun-28 05:59 UTC.
Position S 20°19' E 116°36'.

Length 250 m; draft 8 m.

Type: Tanker. MMSI: 538003211.

Date/timePositionNaut miles runAvg speedWind from/ knotsBaromVisibWave heightAir tempDewpointWater temp
2016-Jun-25 06:33S 20°19' E 116°36'  
2016-Jun-18 04:29N 01°17' E 104°04'3 2.8
2016-Jun-18 03:23N 01°17' E 104°01'0 0.1
2016-Jun-18 00:23N 01°17' E 104°01'0 0.0
2016-Jun-17 20:17N 01°18' E 104°01'0 0.0
2016-Jun-17 19:29N 01°17' E 104°01'0 0.0
2016-Jun-17 18:23N 01°18' E 104°01'0 0.0
2016-Jun-17 17:29N 01°18' E 104°01'0 0.0
2016-Jun-17 16:11N 01°17' E 104°01'0 0.0
2016-Jun-17 15:17N 01°17' E 104°01'0 0.0
2016-Jun-17 14:29N 01°17' E 104°01'0 0.0
2016-Jun-17 13:20N 01°17' E 104°01'0 0.1
2016-Jun-17 12:23N 01°17' E 104°01'0 0.0
2016-Jun-17 11:29N 01°17' E 104°01'2 2.5
2016-Jun-17 10:33N 01°16' E 103°59'3 2.7
2016-Jun-17 09:33N 01°16' E 104°02'4 4.4
2016-Jun-17 08:33N 01°17' E 104°06'7 7.3
2016-Jun-17 07:32N 01°23' E 104°01'1 0.0
2016-Jun-16 02:33N 01°22' E 104°02'6 3.0
2016-Jun-16 00:32N 01°19' E 104°07'0 0.1
2016-Jun-15 23:23N 01°19' E 104°07'0 0.1
2016-Jun-15 21:32N 01°19' E 104°07'0 0.0
2016-Jun-15 10:32N 01°19' E 104°07'0 0.0
2016-Jun-15 09:20N 01°19' E 104°07'  
Track history (hours):
 
Tides and Currents Weather Stations Pressure Air Temp Water Temp Dewpoint Dewpoint Depression Visibility Wind Speed Wind Dir Waves Ship Positions

Fair Seas

Last reported at 2016-Jun-25 06:33 UTC. Time now 2016-Jun-28 05:59 UTC.
Position S 20°19' E 116°36'.

Length 250 m; draft 8 m.

Type: Tanker. MMSI: 538003211.

Date/timePositionNaut miles runAvg speedWind from/ knotsBaromVisibWave heightAir tempDewpointWater temp
2016-Jun-25 06:33S 20°19' E 116°36'  
2016-Jun-18 04:29N 01°17' E 104°04'3 2.8
2016-Jun-18 03:23N 01°17' E 104°01'0 0.1
2016-Jun-18 00:23N 01°17' E 104°01'0 0.0
2016-Jun-17 20:17N 01°18' E 104°01'0 0.0
2016-Jun-17 19:29N 01°17' E 104°01'0 0.0
2016-Jun-17 18:23N 01°18' E 104°01'0 0.0
2016-Jun-17 17:29N 01°18' E 104°01'0 0.0
2016-Jun-17 16:11N 01°17' E 104°01'0 0.0
2016-Jun-17 15:17N 01°17' E 104°01'0 0.0
2016-Jun-17 14:29N 01°17' E 104°01'0 0.0
2016-Jun-17 13:20N 01°17' E 104°01'0 0.1
2016-Jun-17 12:23N 01°17' E 104°01'0 0.0
2016-Jun-17 11:29N 01°17' E 104°01'2 2.5
2016-Jun-17 10:33N 01°16' E 103°59'3 2.7
2016-Jun-17 09:33N 01°16' E 104°02'4 4.4
2016-Jun-17 08:33N 01°17' E 104°06'7 7.3
2016-Jun-17 07:32N 01°23' E 104°01'1 0.0
2016-Jun-16 02:33N 01°22' E 104°02'6 3.0
2016-Jun-16 00:32N 01°19' E 104°07'0 0.1
2016-Jun-15 23:23N 01°19' E 104°07'0 0.1
2016-Jun-15 21:32N 01°19' E 104°07'0 0.0
2016-Jun-15 10:32N 01°19' E 104°07'0 0.0
2016-Jun-15 09:20N 01°19' E 104°07'  

Dump ship's entire track history